Weather at Taliabu Island Airport

Public forecast

Using degrees Celsius for public forecast. Weather courtesy of forecast.io.

Closest aviation weather report (METAR) to Taliabu Island Airport

Closest report is Mutiara - SIS Al-Jufrie Airport, 282.5 nm (523.2 km) W. Retrieved UTC (0 seconds ago):

Closest aviation forecast (TAF) to Taliabu Island Airport

Forecast is more than 12 hours old.

Closest forecast is Emalamo Sanana Airport, 88.5 nm (163.9 km) ESE. Retrieved 2014/03/16 06:20 UTC (8 years ago):

TAF WAPN 120500Z 1206/1218 36008KT 8000 SCT018